Time;durP1;ratioP1;P1;durP2;ratioP2;P2;SDS_P1;SDS_P2;PMS_P1;PMS_P2;Temp;Humidity;BMP_temperature;BMP_pressure;BME280_temperature;BME280_humidity;BME280_pressure;Samples;Min_cycle;Max_cycle;Signal;HPM_P1;HPM_P2
2023/09/28 00:00:59;;;;;;;11.02;4.70;;;;;;;14.06;100.00;97803.59;5152583;27;20026;-70
2023/09/28 00:03:27;;;;;;;15.93;4.82;;;;;;;14.03;100.00;97793.06;5153662;27;20492;-70
2023/09/28 00:05:53;;;;;;;7.63;4.53;;;;;;;13.90;100.00;97798.50;5148264;27;20023;-70
2023/09/28 00:08:18;;;;;;;11.27;4.82;;;;;;;13.99;100.00;97796.97;5131669;27;20038;-70
2023/09/28 00:10:44;;;;;;;7.63;4.53;;;;;;;14.05;100.00;97793.84;5151690;27;20026;-70
2023/09/28 00:13:09;;;;;;;12.27;4.93;;;;;;;14.01;100.00;97797.72;5135500;27;20448;-70
2023/09/28 00:15:35;;;;;;;9.40;4.85;;;;;;;14.03;100.00;97790.38;5150261;27;20037;-70
2023/09/28 00:18:00;;;;;;;10.63;5.15;;;;;;;14.04;100.00;97798.34;5153579;27;20026;-70
2023/09/28 00:20:27;;;;;;;9.88;4.93;;;;;;;14.01;100.00;97795.88;5153170;27;20702;-70
2023/09/28 00:22:54;;;;;;;11.70;5.47;;;;;;;13.97;100.00;97802.44;5135025;27;20018;-70
2023/09/28 00:25:22;;;;;;;9.20;5.35;;;;;;;13.95;100.00;97804.38;5149227;27;20030;-70
2023/09/28 00:27:52;;;;;;;10.95;4.90;;;;;;;13.97;100.00;97801.56;5134972;27;20486;-69
2023/09/28 00:30:21;;;;;;;14.48;5.10;;;;;;;13.90;100.00;97803.88;5151991;27;20478;-69
2023/09/28 00:32:51;;;;;;;9.48;4.90;;;;;;;13.87;100.00;97805.91;5152043;27;20022;-69
2023/09/28 00:35:17;;;;;;;13.65;5.63;;;;;;;13.85;100.00;97800.63;5134487;27;20077;-70
2023/09/28 00:37:43;;;;;;;13.32;5.40;;;;;;;13.74;100.00;97797.84;5152107;27;20063;-69
2023/09/28 00:40:18;;;;;;;9.10;5.00;;;;;;;13.79;100.00;97802.88;5152097;27;20027;-69
2023/09/28 00:42:45;;;;;;;12.70;5.70;;;;;;;13.64;100.00;97804.84;5151834;27;20070;-69
2023/09/28 00:45:11;;;;;;;7.90;5.40;;;;;;;13.48;100.00;97799.66;5128872;27;20015;-69
2023/09/28 00:47:39;;;;;;;10.40;5.45;;;;;;;13.48;100.00;97810.41;5131053;27;20034;-69
2023/09/28 00:50:16;;;;;;;13.82;6.28;;;;;;;13.44;100.00;97811.59;5130403;27;20033;-70
2023/09/28 00:52:49;;;;;;;11.05;6.40;;;;;;;13.25;100.00;97807.59;5152930;27;20102;-70
2023/09/28 00:55:16;;;;;;;12.38;6.25;;;;;;;13.22;100.00;97813.19;5145264;27;20483;-70
2023/09/28 00:57:42;;;;;;;13.40;5.88;;;;;;;13.21;100.00;97812.31;5131925;27;20079;-69
2023/09/28 01:00:28;;;;;;;11.30;6.80;;;;;;;13.13;100.00;97814.69;5151708;27;20018;-69
2023/09/28 01:02:59;;;;;;;16.88;5.82;;;;;;;13.18;100.00;97817.03;5136829;27;20030;-69
2023/09/28 01:05:26;;;;;;;10.10;5.57;;;;;;;13.15;100.00;97807.38;5151331;27;20529;-70
2023/09/28 01:07:52;;;;;;;10.23;6.07;;;;;;;13.19;100.00;97813.38;5152503;27;20106;-69
2023/09/28 01:10:24;;;;;;;16.35;6.53;;;;;;;13.21;100.00;97820.38;5152643;27;20026;-69
2023/09/28 01:12:51;;;;;;;14.10;6.78;;;;;;;13.10;100.00;97820.25;5134851;27;20074;-69
2023/09/28 01:15:17;;;;;;;13.80;6.72;;;;;;;13.05;100.00;97817.84;5151293;27;20026;-69
2023/09/28 01:17:43;;;;;;;16.63;6.90;;;;;;;12.95;100.00;97816.72;5151013;27;20461;-70
2023/09/28 01:20:24;;;;;;;12.48;6.50;;;;;;;12.85;100.00;97822.84;5133881;27;20046;-69
2023/09/28 01:22:50;;;;;;;13.07;6.53;;;;;;;12.86;100.00;97824.53;5136101;27;20072;-70
2023/09/28 01:25:21;;;;;;;11.73;5.90;;;;;;;12.86;100.00;97821.84;5151180;27;20026;-69
2023/09/28 01:27:47;;;;;;;9.80;5.93;;;;;;;12.93;100.00;97824.03;5151388;27;20056;-70
2023/09/28 01:30:13;;;;;;;16.83;6.07;;;;;;;12.95;100.00;97826.63;5133628;27;20489;-69
2023/09/28 01:32:39;;;;;;;12.57;5.45;;;;;;;12.91;100.00;97825.09;5152387;27;20027;-69
2023/09/28 01:35:06;;;;;;;10.75;6.15;;;;;;;12.94;100.00;97819.53;5138895;27;20550;-69
2023/09/28 01:37:42;;;;;;;11.65;6.63;;;;;;;12.80;100.00;97806.16;5146150;27;20195;-69
2023/09/28 01:40:09;;;;;;;9.55;5.90;;;;;;;12.83;100.00;97811.31;5133926;27;20037;-70
2023/09/28 01:42:34;;;;;;;10.65;5.70;;;;;;;12.86;100.00;97813.78;5136336;27;20379;-70
2023/09/28 01:45:00;;;;;;;11.68;5.95;;;;;;;12.79;100.00;97816.06;5130409;27;20030;-70
2023/09/28 01:47:25;;;;;;;9.85;5.75;;;;;;;12.95;100.00;97815.88;5150111;27;20059;-70
2023/09/28 01:49:51;;;;;;;10.07;5.30;;;;;;;12.97;100.00;97808.56;5152184;27;20431;-69
2023/09/28 01:52:16;;;;;;;14.23;5.72;;;;;;;13.03;100.00;97802.78;5150581;27;20069;-70
2023/09/28 01:54:43;;;;;;;14.02;5.60;;;;;;;13.09;100.00;97810.47;5150772;27;20058;-70
2023/09/28 01:57:08;;;;;;;8.93;5.60;;;;;;;13.01;100.00;97804.75;5150734;27;20051;-69
2023/09/28 01:59:34;;;;;;;15.50;5.50;;;;;;;12.90;100.00;97801.88;5150609;27;20027;-70
2023/09/28 02:02:01;;;;;;;12.98;5.03;;;;;;;12.79;100.00;97804.44;5150578;27;20058;-70
2023/09/28 02:04:26;;;;;;;11.05;5.53;;;;;;;12.80;100.00;97811.50;5123667;27;20474;-69
2023/09/28 02:06:53;;;;;;;14.20;5.25;;;;;;;12.73;100.00;97792.31;5131317;27;20026;-69
2023/09/28 02:09:19;;;;;;;10.35;5.38;;;;;;;12.70;100.00;97807.75;5152372;27;20023;-70
2023/09/28 02:11:44;;;;;;;11.45;5.03;;;;;;;12.61;100.00;97800.31;5147778;27;20093;-70
2023/09/28 02:14:11;;;;;;;13.70;5.03;;;;;;;12.68;100.00;97801.59;5154802;27;20044;-69
2023/09/28 02:16:37;;;;;;;7.65;4.95;;;;;;;12.70;100.00;97807.75;5155641;27;20027;-69
2023/09/28 02:19:03;;;;;;;8.68;5.03;;;;;;;12.71;100.00;97806.75;5155732;27;20473;-69
2023/09/28 02:21:29;;;;;;;12.32;5.07;;;;;;;12.72;100.00;97813.84;5135924;27;20015;-69
2023/09/28 02:23:55;;;;;;;9.68;4.80;;;;;;;12.60;100.00;97807.47;5148505;27;20484;-69
2023/09/28 02:26:20;;;;;;;7.07;4.90;;;;;;;12.60;100.00;97809.31;5147335;27;20027;-69
2023/09/28 02:28:46;;;;;;;11.13;5.47;;;;;;;12.60;100.00;97815.53;5153935;27;20056;-70
2023/09/28 02:31:11;;;;;;;11.90;5.15;;;;;;;12.54;100.00;97820.44;5155642;27;20539;-70
2023/09/28 02:33:37;;;;;;;14.30;5.65;;;;;;;12.60;100.00;97810.16;5155310;27;20019;-69
2023/09/28 02:36:02;;;;;;;11.57;5.20;;;;;;;12.61;100.00;97821.78;5154165;27;20457;-69
2023/09/28 02:38:29;;;;;;;15.05;6.00;;;;;;;12.59;100.00;97823.66;5154050;27;20026;-69
2023/09/28 02:40:54;;;;;;;8.38;5.00;;;;;;;12.60;100.00;97820.03;5154369;27;20034;-69
2023/09/28 02:43:20;;;;;;;19.52;5.30;;;;;;;12.59;100.00;97834.41;5139221;27;20023;-70
2023/09/28 02:45:45;;;;;;;13.90;5.15;;;;;;;12.63;100.00;97822.53;5134505;27;20023;-70
2023/09/28 02:48:11;;;;;;;7.97;4.85;;;;;;;12.69;100.00;97825.66;5116251;27;20023;-69
2023/09/28 02:50:37;;;;;;;15.57;5.25;;;;;;;12.67;100.00;97826.72;5150498;27;20062;-69
2023/09/28 02:53:03;;;;;;;8.85;5.18;;;;;;;12.79;100.00;97831.28;5134660;27;20443;-70
2023/09/28 02:55:29;;;;;;;15.38;4.97;;;;;;;12.88;100.00;97836.06;5134311;27;20023;-71
2023/09/28 02:57:54;;;;;;;12.27;4.82;;;;;;;12.81;100.00;97826.66;5134591;27;20114;-70
2023/09/28 03:00:24;;;;;;;10.73;5.07;;;;;;;12.88;100.00;97825.31;5149996;27;20402;-70
2023/09/28 03:02:56;;;;;;;15.35;5.88;;;;;;;13.07;100.00;97831.19;5153927;27;20101;-70
2023/09/28 03:05:22;;;;;;;12.90;5.57;;;;;;;13.11;100.00;97838.06;5153967;27;20026;-71
2023/09/28 03:07:48;;;;;;;15.00;6.88;;;;;;;13.22;100.00;97834.69;5154861;27;20019;-69
2023/09/28 03:10:14;;;;;;;14.63;6.57;;;;;;;13.33;100.00;97837.47;5147721;27;20031;-70
2023/09/28 03:12:39;;;;;;;23.27;8.55;;;;;;;13.40;100.00;97846.84;5132583;27;20023;-70
2023/09/28 03:15:11;;;;;;;72.68;20.23;;;;;;;13.51;100.00;97846.97;5147223;27;20023;-71
2023/09/28 03:17:38;;;;;;;64.20;16.67;;;;;;;13.55;100.00;97854.72;5144373;27;20030;-70
2023/09/28 03:20:13;;;;;;;56.90;14.00;;;;;;;13.57;100.00;97852.78;5131430;27;20044;-70
2023/09/28 03:22:39;;;;;;;37.15;13.43;;;;;;;13.60;100.00;97853.56;5144314;27;20121;-69
2023/09/28 03:25:10;;;;;;;140.25;39.78;;;;;;;13.58;100.00;97843.75;5153311;27;20483;-70
2023/09/28 03:27:35;;;;;;;91.68;37.05;;;;;;;13.61;100.00;97853.44;5154250;27;20037;-69
2023/09/28 03:30:09;;;;;;;111.40;47.17;;;;;;;13.53;100.00;97851.25;5153249;27;20478;-70
2023/09/28 03:32:34;;;;;;;;;;;;;;;13.49;100.00;97846.22;5136970;27;20402;-70
2023/09/28 03:35:00;;;;;;;42.45;18.17;;;;;;;13.44;100.00;97851.06;5153059;27;19919;-69
2023/09/28 03:37:27;;;;;;;43.53;21.20;;;;;;;13.43;100.00;97850.19;5154425;27;20485;-70
2023/09/28 03:39:53;;;;;;;43.13;17.42;;;;;;;13.47;100.00;97851.69;5152774;27;20037;-68
2023/09/28 03:42:18;;;;;;;23.40;12.57;;;;;;;13.47;100.00;97849.00;5153265;27;20019;-80
2023/09/28 03:44:44;;;;;;;18.15;10.13;;;;;;;13.59;100.00;97850.00;5133766;27;20122;-69
2023/09/28 03:47:10;;;;;;;13.88;6.82;;;;;;;13.57;100.00;97852.78;5133289;27;20019;-70
2023/09/28 03:49:36;;;;;;;17.70;7.05;;;;;;;13.55;100.00;97849.34;5133069;27;20068;-69
2023/09/28 03:52:02;;;;;;;12.90;5.93;;;;;;;13.69;100.00;97864.50;5152126;27;20050;-70
2023/09/28 03:54:28;;;;;;;14.10;5.85;;;;;;;13.62;100.00;97859.69;5137595;27;20470;-69
2023/09/28 03:56:53;;;;;;;9.52;5.85;;;;;;;13.65;100.00;97860.31;5140435;27;20067;-70
2023/09/28 03:59:19;;;;;;;14.30;5.88;;;;;;;13.53;100.00;97867.38;5138610;27;20450;-70
2023/09/28 04:01:44;;;;;;;15.45;6.40;;;;;;;13.42;100.00;97867.28;5152216;27;20026;-69
2023/09/28 04:04:11;;;;;;;12.23;6.25;;;;;;;13.50;100.00;97872.97;5152587;27;20159;-70
2023/09/28 04:06:37;;;;;;;16.85;7.72;;;;;;;13.52;100.00;97863.00;5152450;27;20500;-70
2023/09/28 04:09:07;;;;;;;11.70;5.32;;;;;;;13.52;100.00;97860.31;5134963;27;20022;-69
2023/09/28 04:11:32;;;;;;;13.30;6.30;;;;;;;13.57;100.00;97871.59;5144412;27;20030;-69
2023/09/28 04:13:58;;;;;;;19.63;6.55;;;;;;;13.52;100.00;97872.88;5131354;27;20037;-69
2023/09/28 04:16:23;;;;;;;14.75;6.28;;;;;;;13.65;100.00;97878.28;5140138;27;20051;-72
2023/09/28 04:18:49;;;;;;;12.90;6.53;;;;;;;13.57;100.00;97871.59;5124394;27;20042;-71
2023/09/28 04:21:14;;;;;;;22.45;6.35;;;;;;;13.51;100.00;97868.47;5145705;27;20574;-71
2023/09/28 04:23:40;;;;;;;11.23;6.53;;;;;;;13.71;100.00;97881.41;5131095;27;20114;-71
2023/09/28 04:26:05;;;;;;;14.98;6.45;;;;;;;13.82;100.00;97888.72;5151914;27;20019;-72
2023/09/28 04:28:31;;;;;;;12.55;5.88;;;;;;;13.91;100.00;97899.69;5118760;27;20023;-71
2023/09/28 04:30:56;;;;;;;12.15;6.03;;;;;;;13.84;100.00;97893.00;5130660;27;20019;-71
2023/09/28 04:33:22;;;;;;;18.65;6.03;;;;;;;13.95;100.00;97894.97;5114174;27;20019;-71
2023/09/28 04:35:49;;;;;;;16.00;8.05;;;;;;;13.93;100.00;97881.66;5133174;27;20469;-69
2023/09/28 04:38:15;;;;;;;18.83;6.55;;;;;;;13.99;100.00;97881.22;5152789;27;20440;-71
2023/09/28 04:40:41;;;;;;;19.90;7.28;;;;;;;13.96;100.00;97888.63;5151595;27;20031;-70
2023/09/28 04:43:06;;;;;;;14.88;6.97;;;;;;;13.95;100.00;97885.06;5151519;27;20126;-70
2023/09/28 04:45:33;;;;;;;12.85;7.25;;;;;;;13.87;100.00;97881.22;5153020;27;20109;-70
2023/09/28 04:47:59;;;;;;;19.48;6.65;;;;;;;13.75;100.00;97888.28;5151560;27;20014;-70
2023/09/28 04:50:25;;;;;;;22.63;10.02;;;;;;;13.71;100.00;97886.78;5151788;27;20022;-70
2023/09/28 04:52:50;;;;;;;18.35;6.78;;;;;;;13.67;100.00;97895.16;5152954;27;20424;-71
2023/09/28 04:55:16;;;;;;;16.58;8.07;;;;;;;13.58;100.00;97899.34;5151422;27;20051;-71
2023/09/28 04:57:42;;;;;;;18.90;7.00;;;;;;;13.62;100.00;97898.19;5136324;27;20030;-70
2023/09/28 05:00:10;;;;;;;22.90;6.95;;;;;;;13.64;100.00;97898.06;5130597;27;20076;-71
2023/09/28 05:02:36;;;;;;;12.93;7.03;;;;;;;13.72;100.00;97898.41;5127503;27;20031;-71
2023/09/28 05:05:04;;;;;;;18.30;7.97;;;;;;;13.62;100.00;97891.94;5151280;27;20010;-71
2023/09/28 05:07:29;;;;;;;11.75;6.68;;;;;;;13.64;100.00;97906.97;5151615;27;20291;-70
2023/09/28 05:09:55;;;;;;;22.52;7.63;;;;;;;13.68;100.00;97899.56;5152812;27;20033;-71
2023/09/28 05:12:20;;;;;;;16.48;7.38;;;;;;;13.82;100.00;97902.16;5131885;27;20551;-71
2023/09/28 05:14:46;;;;;;;13.65;7.38;;;;;;;13.97;100.00;97903.78;5131839;27;20414;-70
2023/09/28 05:17:14;;;;;;;14.13;6.85;;;;;;;14.08;100.00;97903.91;5149196;27;20023;-70
2023/09/28 05:19:40;;;;;;;13.85;6.43;;;;;;;14.08;100.00;97893.16;5152282;27;20034;-70
2023/09/28 05:22:07;;;;;;;13.18;6.47;;;;;;;14.25;100.00;97898.19;5134056;27;20019;-70
2023/09/28 05:24:33;;;;;;;19.98;10.10;;;;;;;14.42;100.00;97899.72;5143533;27;20023;-71
2023/09/28 05:26:58;;;;;;;18.58;9.43;;;;;;;14.55;100.00;97898.69;5151188;27;20378;-71
2023/09/28 05:29:24;;;;;;;16.02;6.50;;;;;;;14.66;100.00;97903.31;5152165;27;20083;-70
2023/09/28 05:31:50;;;;;;;13.27;6.57;;;;;;;14.74;100.00;97894.66;5135699;27;20035;-70
2023/09/28 05:34:15;;;;;;;18.17;7.25;;;;;;;14.84;100.00;97898.41;5129763;27;20023;-70
2023/09/28 05:36:41;;;;;;;72.78;32.90;;;;;;;14.87;100.00;97914.34;5131807;27;20390;-71
2023/09/28 05:39:08;;;;;;;19.92;9.13;;;;;;;15.01;100.00;97906.13;5147348;27;20018;-72
2023/09/28 05:41:34;;;;;;;25.10;6.63;;;;;;;15.03;100.00;97909.56;5147940;27;20022;-72
2023/09/28 05:43:59;;;;;;;17.73;6.25;;;;;;;15.20;100.00;97909.16;5145711;27;20331;-71
2023/09/28 05:46:25;;;;;;;30.33;6.78;;;;;;;15.22;100.00;97914.44;5150782;27;20393;-69
2023/09/28 05:48:51;;;;;;;17.52;9.35;;;;;;;15.27;100.00;97914.97;5151985;27;20055;-71
2023/09/28 05:51:17;;;;;;;28.35;10.10;;;;;;;15.36;100.00;97917.81;5149163;27;20023;-71
2023/09/28 05:53:43;;;;;;;16.40;6.22;;;;;;;15.46;100.00;97905.38;5143622;27;20019;-70
2023/09/28 05:56:08;;;;;;;17.42;6.55;;;;;;;15.52;100.00;97915.72;5151728;27;20019;-70
2023/09/28 05:58:34;;;;;;;17.40;7.22;;;;;;;15.57;100.00;97912.66;5133520;27;20114;-71
2023/09/28 06:01:07;;;;;;;19.92;7.25;;;;;;;15.84;100.00;97920.50;5143760;27;20560;-70
2023/09/28 06:03:35;;;;;;;20.33;7.28;;;;;;;15.96;100.00;97915.03;5112739;27;20175;-71
2023/09/28 06:06:11;;;;;;;12.25;5.65;;;;;;;16.23;100.00;97910.16;5141514;27;20019;-70
2023/09/28 06:08:37;;;;;;;29.52;11.20;;;;;;;16.53;100.00;97914.94;5148023;27;20033;-71
2023/09/28 06:11:02;;;;;;;17.75;7.75;;;;;;;16.77;100.00;97904.03;5103401;28;20039;-71
2023/09/28 06:13:30;;;;;;;13.32;6.28;;;;;;;16.91;100.00;97905.63;5149251;27;20019;-70
2023/09/28 06:15:56;;;;;;;9.23;5.70;;;;;;;17.05;100.00;97911.63;5133134;27;20018;-71
2023/09/28 06:18:21;;;;;;;13.55;7.45;;;;;;;17.01;100.00;97912.84;5137243;27;20478;-70
2023/09/28 06:20:47;;;;;;;14.40;7.30;;;;;;;17.24;100.00;97908.25;5150531;27;20441;-70
2023/09/28 06:23:14;;;;;;;23.67;7.45;;;;;;;17.53;100.00;97908.53;5151856;27;20478;-70
2023/09/28 06:25:41;;;;;;;16.10;6.25;;;;;;;17.77;100.00;97904.63;5133346;27;20125;-71
2023/09/28 06:28:07;;;;;;;19.65;7.20;;;;;;;17.85;100.00;97912.94;5136189;27;20092;-71
2023/09/28 06:30:33;;;;;;;20.75;6.32;;;;;;;17.90;100.00;97909.00;5149097;27;20449;-69
2023/09/28 06:32:58;;;;;;;16.38;6.47;;;;;;;17.95;100.00;97921.16;5135870;27;20027;-70
2023/09/28 06:35:24;;;;;;;14.15;6.85;;;;;;;18.08;100.00;97918.25;5147570;27;20474;-70
2023/09/28 06:37:49;;;;;;;22.20;8.38;;;;;;;18.42;100.00;97906.19;5138565;27;20494;-72
2023/09/28 06:40:15;;;;;;;17.67;6.57;;;;;;;18.38;100.00;97905.59;5146610;27;20527;-71
2023/09/28 06:42:41;;;;;;;30.88;9.18;;;;;;;18.45;100.00;97911.34;5112634;27;20085;-71
2023/09/28 06:45:07;;;;;;;20.40;6.85;;;;;;;18.61;100.00;97905.47;5141130;27;20440;-72
2023/09/28 06:47:32;;;;;;;14.43;6.85;;;;;;;18.76;100.00;97910.38;5129875;27;20168;-72
2023/09/28 06:49:58;;;;;;;21.05;7.43;;;;;;;19.05;100.00;97905.03;5135380;27;20068;-70
2023/09/28 06:52:23;;;;;;;20.05;7.05;;;;;;;19.35;100.00;97909.50;5130727;27;20031;-70
2023/09/28 06:54:49;;;;;;;12.02;7.15;;;;;;;19.47;100.00;97901.13;5151763;27;20106;-71
2023/09/28 06:57:15;;;;;;;10.95;6.32;;;;;;;19.40;100.00;97905.44;5154059;27;20172;-70
2023/09/28 06:59:40;;;;;;;15.88;5.95;;;;;;;19.59;100.00;97911.88;5143794;27;20042;-70
2023/09/28 07:02:06;;;;;;;16.70;6.75;;;;;;;19.98;100.00;97911.72;5153553;27;20026;-70
2023/09/28 07:04:31;;;;;;;34.35;16.23;;;;;;;20.09;100.00;97904.44;5153458;27;20038;-70
2023/09/28 07:06:57;;;;;;;16.88;7.35;;;;;;;20.12;100.00;97913.13;5153666;27;20015;-70
2023/09/28 07:09:22;;;;;;;18.60;9.55;;;;;;;20.07;100.00;97904.56;5154982;27;20030;-70
2023/09/28 07:11:48;;;;;;;11.57;5.40;;;;;;;20.12;100.00;97912.28;5154729;27;20087;-70
2023/09/28 07:14:14;;;;;;;13.43;5.70;;;;;;;20.22;100.00;97918.53;5154881;27;20113;-70
2023/09/28 07:16:39;;;;;;;29.33;6.18;;;;;;;20.25;100.00;97913.69;5145553;27;20106;-70
2023/09/28 07:19:06;;;;;;;11.88;5.68;;;;;;;20.82;100.00;97900.94;5152161;27;20723;-70
2023/09/28 07:21:31;;;;;;;14.07;6.13;;;;;;;21.49;100.00;97901.44;5153542;27;20061;-70
2023/09/28 07:23:57;;;;;;;13.98;5.40;;;;;;;21.99;100.00;97906.38;5136051;27;20058;-70
2023/09/28 07:26:23;;;;;;;18.75;6.57;;;;;;;22.26;100.00;97905.41;5153356;27;20038;-69
2023/09/28 07:28:48;;;;;;;12.48;5.88;;;;;;;22.18;100.00;97903.44;5154441;27;20037;-71
2023/09/28 07:31:15;;;;;;;20.42;7.38;;;;;;;22.17;100.00;97906.34;5126816;27;20015;-70
2023/09/28 07:33:41;;;;;;;29.63;6.50;;;;;;;22.11;100.00;97914.16;5115287;27;20026;-70
2023/09/28 07:36:07;;;;;;;23.88;6.20;;;;;;;21.78;100.00;97914.00;5134597;27;20027;-70
2023/09/28 07:38:33;;;;;;;24.92;6.13;;;;;;;21.27;100.00;97922.78;5153149;27;20038;-70
2023/09/28 07:40:59;;;;;;;29.73;7.95;;;;;;;21.43;100.00;97912.94;5125926;27;20459;-72
2023/09/28 07:43:25;;;;;;;20.08;6.20;;;;;;;21.49;100.00;97916.91;5118065;27;20455;-71
2023/09/28 07:45:51;;;;;;;20.33;5.60;;;;;;;21.36;100.00;97920.00;5132013;27;20033;-72
2023/09/28 07:48:17;;;;;;;13.80;5.45;;;;;;;21.38;100.00;97911.72;5114935;27;20027;-70
2023/09/28 07:50:43;;;;;;;14.05;5.82;;;;;;;21.36;100.00;97906.41;5131822;27;20459;-70
2023/09/28 07:53:08;;;;;;;11.75;5.45;;;;;;;21.74;100.00;97904.41;5151348;27;20027;-69
2023/09/28 07:55:34;;;;;;;11.82;5.45;;;;;;;22.33;96.22;97890.13;5152839;27;20026;-69
2023/09/28 07:58:00;;;;;;;23.90;6.55;;;;;;;22.78;90.81;97901.69;5130332;27;20019;-70
2023/09/28 08:00:27;;;;;;;18.92;7.00;;;;;;;23.10;87.95;97888.16;5133227;27;20031;-70
2023/09/28 08:02:52;;;;;;;17.73;4.88;;;;;;;22.97;78.06;97879.59;5133093;27;20023;-69
2023/09/28 08:05:18;;;;;;;46.13;24.27;;;;;;;23.21;76.92;97887.03;5151278;27;20025;-71
2023/09/28 08:07:43;;;;;;;14.85;5.72;;;;;;;24.12;70.23;97872.34;5136988;27;20149;-71
2023/09/28 08:10:09;;;;;;;15.57;8.10;;;;;;;24.44;65.38;97874.22;5142020;27;20148;-71
2023/09/28 08:12:36;;;;;;;20.15;4.28;;;;;;;24.44;63.84;97873.34;5152447;27;20030;-72
2023/09/28 08:15:03;;;;;;;15.55;4.13;;;;;;;25.57;58.29;97856.50;5152203;27;20395;-71
2023/09/28 08:17:29;;;;;;;12.13;4.78;;;;;;;25.72;55.73;97865.66;5152313;27;20494;-75
2023/09/28 08:19:56;;;;;;;9.40;4.30;;;;;;;25.09;57.24;97866.69;5152176;27;20570;-77
2023/09/28 08:22:22;;;;;;;12.63;4.28;;;;;;;24.17;61.62;97872.72;5140770;27;20019;-75
2023/09/28 08:24:49;;;;;;;12.88;3.97;;;;;;;23.98;64.62;97881.22;5145859;27;20406;-75
2023/09/28 08:27:14;;;;;;;6.10;3.60;;;;;;;23.93;64.09;97872.69;5144987;27;20022;-76
2023/09/28 08:29:40;;;;;;;23.27;4.55;;;;;;;23.94;64.11;97878.97;5146392;27;20508;-75
2023/09/28 08:32:06;;;;;;;13.48;4.90;;;;;;;23.85;64.43;97880.88;5144471;27;20021;-74
2023/09/28 08:34:34;;;;;;;8.35;3.90;;;;;;;23.03;64.64;97876.22;5139158;27;20035;-74
2023/09/28 08:37:03;;;;;;;11.88;4.35;;;;;;;23.02;66.95;97876.38;5148442;27;20030;-75
2023/09/28 08:39:31;;;;;;;15.00;4.07;;;;;;;22.90;66.79;97878.53;5141962;27;20026;-74
2023/09/28 08:42:01;;;;;;;6.85;3.22;;;;;;;23.08;66.70;97875.72;5142529;27;20019;-75
2023/09/28 08:44:29;;;;;;;13.68;4.10;;;;;;;23.42;66.94;97864.75;5136803;27;20076;-75
2023/09/28 08:47:00;;;;;;;6.35;3.65;;;;;;;24.01;64.51;97869.94;5139499;27;20038;-74
2023/09/28 08:49:27;;;;;;;20.02;4.90;;;;;;;24.86;61.73;97864.88;5139897;27;20023;-75
2023/09/28 08:51:55;;;;;;;13.65;4.30;;;;;;;25.45;58.09;97861.53;5130891;27;20434;-75
2023/09/28 08:54:24;;;;;;;28.17;4.55;;;;;;;26.39;53.16;97853.78;5146860;27;20030;-75
2023/09/28 08:56:52;;;;;;;16.77;4.45;;;;;;;26.20;53.09;97859.84;5137899;27;20466;-75
2023/09/28 08:59:19;;;;;;;4.70;3.47;;;;;;;26.07;53.05;97855.97;5150234;27;20023;-76
2023/09/28 09:01:46;;;;;;;14.38;4.60;;;;;;;25.39;56.04;97855.91;5145310;27;20095;-75
2023/09/28 09:04:12;;;;;;;7.22;3.90;;;;;;;25.09;58.50;97860.34;5141142;27;20054;-75
2023/09/28 09:06:37;;;;;;;13.73;4.35;;;;;;;24.84;59.65;97862.34;5153057;27;20022;-74
2023/09/28 09:09:07;;;;;;;5.97;3.40;;;;;;;24.60;58.76;97859.66;5142357;27;20528;-75
2023/09/28 09:11:37;;;;;;;11.90;4.10;;;;;;;26.19;55.45;97852.63;5136837;27;20030;-75
2023/09/28 09:14:02;;;;;;;7.65;3.53;;;;;;;27.84;50.15;97828.31;5149735;27;20425;-75
2023/09/28 09:16:30;;;;;;;10.90;3.95;;;;;;;28.97;46.44;97823.50;5131734;27;20100;-75
2023/09/28 09:18:56;;;;;;;14.05;6.00;;;;;;;30.12;43.49;97821.53;5129971;27;20116;-75
2023/09/28 09:21:22;;;;;;;7.70;3.40;;;;;;;30.38;42.25;97806.91;5133255;27;20027;-75
2023/09/28 09:24:04;;;;;;;13.18;3.38;;;;;;;31.46;39.81;97806.22;5131740;27;20023;-75
2023/09/28 09:26:47;;;;;;;13.63;3.83;;;;;;;33.24;36.83;97798.16;5121950;27;20019;-75
2023/09/28 09:29:14;;;;;;;7.50;3.40;;;;;;;33.30;36.26;97794.47;5138999;27;20096;-75
2023/09/28 09:31:44;;;;;;;14.48;3.88;;;;;;;33.65;35.81;97791.88;5139277;27;20049;-75
2023/09/28 09:34:18;;;;;;;4.88;3.53;;;;;;;33.23;36.69;97794.53;5123733;27;20057;-76
2023/09/28 09:36:58;;;;;;;7.38;3.45;;;;;;;33.84;35.66;97792.69;5137092;27;20034;-75
2023/09/28 09:39:27;;;;;;;17.50;3.63;;;;;;;34.66;34.58;97786.22;5140292;27;20023;-75
2023/09/28 09:41:53;;;;;;;9.00;3.80;;;;;;;35.33;33.35;97779.13;5142584;27;20030;-75
2023/09/28 09:44:20;;;;;;;6.82;3.67;;;;;;;35.73;33.08;97779.97;5150834;27;20033;-75
2023/09/28 09:46:49;;;;;;;8.00;3.42;;;;;;;36.80;31.54;97775.16;5133650;27;20019;-75
2023/09/28 09:49:18;;;;;;;9.18;3.60;;;;;;;36.52;31.51;97771.66;5141278;27;20129;-75
2023/09/28 09:51:50;;;;;;;7.82;3.58;;;;;;;35.14;33.13;97770.09;5138831;27;20030;-74
2023/09/28 09:54:17;;;;;;;5.07;3.22;;;;;;;34.62;33.51;97780.28;5132992;27;20022;-75
2023/09/28 09:56:47;;;;;;;9.00;4.13;;;;;;;35.17;33.40;97777.09;5117782;27;20115;-74
2023/09/28 09:59:17;;;;;;;7.82;3.90;;;;;;;36.50;32.12;97774.66;5139282;27;20506;-75
2023/09/28 10:01:53;;;;;;;5.88;3.67;;;;;;;36.72;31.51;97778.41;5145231;27;20129;-75
2023/09/28 10:04:21;;;;;;;8.00;3.55;;;;;;;36.68;31.33;97766.06;5125189;27;20454;-75
2023/09/28 10:06:51;;;;;;;8.85;3.55;;;;;;;36.60;31.89;97777.66;5146212;27;20022;-74
2023/09/28 10:09:18;;;;;;;12.00;3.65;;;;;;;37.47;31.05;97768.59;5130307;27;20027;-75
2023/09/28 10:11:46;;;;;;;10.43;3.50;;;;;;;36.68;30.77;97766.06;5134836;27;20051;-75
2023/09/28 10:14:12;;;;;;;14.13;3.60;;;;;;;36.23;32.24;97759.72;5126600;27;20026;-75
2023/09/28 10:16:38;;;;;;;7.28;3.28;;;;;;;35.42;33.45;97755.38;5134357;27;20027;-75
2023/09/28 10:19:05;;;;;;;7.57;3.40;;;;;;;35.87;33.56;97764.63;5145428;27;20046;-75
2023/09/28 10:21:38;;;;;;;19.55;3.92;;;;;;;35.52;34.17;97766.72;5133418;27;20161;-75
2023/09/28 10:24:17;;;;;;;8.68;4.07;;;;;;;34.84;34.94;97764.69;5150461;27;20038;-74
2023/09/28 10:26:50;;;;;;;9.90;3.08;;;;;;;34.05;35.63;97775.47;5152129;27;20021;-74
2023/09/28 10:29:30;;;;;;;7.40;3.28;;;;;;;33.93;36.67;97769.91;5123873;27;20026;-74
2023/09/28 10:31:57;;;;;;;9.57;3.50;;;;;;;34.42;35.83;97777.00;5136178;27;20023;-74
2023/09/28 10:34:24;;;;;;;7.18;3.40;;;;;;;35.31;34.77;97764.63;5150272;27;20019;-75
2023/09/28 10:37:18;;;;;;;9.70;3.40;;;;;;;35.96;33.70;97750.31;5153988;27;20038;-74
2023/09/28 10:39:48;;;;;;;8.95;3.25;;;;;;;36.29;33.03;97747.56;5146173;27;20133;-75
2023/09/28 10:42:17;;;;;;;9.88;3.28;;;;;;;36.24;32.58;97748.31;5133871;27;20379;-75
2023/09/28 10:44:51;;;;;;;5.90;3.08;;;;;;;36.86;32.35;97739.81;5142154;27;20030;-75
2023/09/28 10:47:16;;;;;;;5.88;2.90;;;;;;;37.44;31.48;97736.41;5116303;27;20031;-76
2023/09/28 10:49:42;;;;;;;11.77;3.33;;;;;;;37.31;31.74;97720.06;5116096;27;20100;-75
2023/09/28 10:52:09;;;;;;;7.25;3.47;;;;;;;37.86;30.92;97728.25;5135327;27;20035;-75
2023/09/28 10:54:36;;;;;;;5.20;3.17;;;;;;;38.37;30.81;97729.56;5154381;27;20038;-75
2023/09/28 10:57:02;;;;;;;13.55;3.63;;;;;;;39.44;29.21;97713.13;5141294;27;20079;-76
2023/09/28 10:59:28;;;;;;;14.50;3.17;;;;;;;39.90;28.64;97714.09;5136313;27;20034;-76
2023/09/28 11:01:54;;;;;;;13.40;3.75;;;;;;;40.29;28.49;97710.78;5127494;27;20042;-76
2023/09/28 11:04:20;;;;;;;8.23;3.25;;;;;;;39.99;28.19;97718.03;5136561;27;20027;-74
2023/09/28 11:06:45;;;;;;;8.25;3.53;;;;;;;38.46;29.59;97712.03;5132445;27;20027;-75
2023/09/28 11:09:14;;;;;;;9.80;3.30;;;;;;;38.85;29.71;97714.56;5149452;27;20063;-74
2023/09/28 11:11:43;;;;;;;15.63;3.72;;;;;;;38.01;30.90;97714.44;5147612;27;20023;-75
2023/09/28 11:14:10;;;;;;;7.70;4.13;;;;;;;37.02;31.91;97716.63;5132965;27;20490;-75
2023/09/28 11:16:38;;;;;;;7.35;3.20;;;;;;;34.70;34.68;97717.94;5138389;27;20031;-75
2023/09/28 11:19:04;;;;;;;14.18;3.92;;;;;;;35.61;34.54;97715.16;5132630;27;20039;-75
2023/09/28 11:21:31;;;;;;;10.52;3.10;;;;;;;34.11;36.16;97721.78;5133112;27;20023;-75